createdAt,value
2022-09-10T00:01:45.375Z,14.38
2022-09-10T00:04:53.934Z,14.40
2022-09-10T00:07:59.741Z,14.55
2022-09-10T00:11:10.300Z,14.57
2022-09-10T00:14:20.414Z,14.61
2022-09-10T00:17:27.337Z,14.57
2022-09-10T00:20:35.509Z,14.58
2022-09-10T00:23:41.493Z,14.58
2022-09-10T00:26:47.037Z,14.48
2022-09-10T00:29:56.555Z,14.45
2022-09-10T00:33:02.133Z,14.47
2022-09-10T00:36:27.421Z,14.43
2022-09-10T00:39:33.089Z,14.38
2022-09-10T00:42:38.676Z,14.40
2022-09-10T00:45:49.677Z,14.42
2022-09-10T00:48:58.714Z,14.42
2022-09-10T00:52:09.572Z,14.41
2022-09-10T00:55:23.722Z,14.43
2022-09-10T00:58:32.420Z,14.43
2022-09-10T01:01:41.435Z,14.32
2022-09-10T01:04:49.269Z,14.22
2022-09-10T01:08:02.846Z,14.30
2022-09-10T01:11:37.985Z,14.23
2022-09-10T01:15:13.370Z,14.30
2022-09-10T01:18:39.385Z,14.31
2022-09-10T01:22:08.239Z,14.20
2022-09-10T01:25:43.390Z,14.14
2022-09-10T01:29:05.778Z,14.13
2022-09-10T01:32:27.051Z,14.07
2022-09-10T01:35:43.439Z,13.93
2022-09-10T01:38:51.940Z,13.92
2022-09-10T01:42:00.436Z,13.90
2022-09-10T01:45:18.808Z,13.86
2022-09-10T01:49:06.834Z,13.77
2022-09-10T01:52:32.658Z,13.68
2022-09-10T01:55:51.264Z,13.74
2022-09-10T01:59:12.677Z,13.53
2022-09-10T02:02:31.966Z,13.62
2022-09-10T02:05:51.172Z,13.59
2022-09-10T02:09:00.491Z,13.62
2022-09-10T02:12:11.937Z,13.63
2022-09-10T02:15:35.273Z,13.47
2022-09-10T02:19:08.299Z,13.45
2022-09-10T02:22:15.615Z,13.43
2022-09-10T02:25:21.435Z,13.47
2022-09-10T02:28:27.685Z,13.52
2022-09-10T02:31:33.400Z,13.52
2022-09-10T02:34:41.705Z,13.56
2022-09-10T02:37:48.111Z,13.56
2022-09-10T02:40:55.842Z,13.54
2022-09-10T02:44:04.573Z,13.65
2022-09-10T02:47:15.365Z,13.61
2022-09-10T02:50:25.216Z,13.67
2022-09-10T02:53:31.156Z,13.67
2022-09-10T02:56:46.804Z,13.66
2022-09-10T02:59:59.579Z,13.69
2022-09-10T03:03:19.947Z,13.77
2022-09-10T03:06:30.924Z,13.85
2022-09-10T03:09:37.061Z,13.80
2022-09-10T03:12:45.869Z,13.82
2022-09-10T03:15:51.611Z,13.86
2022-09-10T03:19:00.463Z,13.90
2022-09-10T03:22:19.203Z,13.96
2022-09-10T03:25:25.406Z,13.82
2022-09-10T03:28:39.007Z,13.85
2022-09-10T03:31:46.910Z,13.81
2022-09-10T03:34:57.849Z,13.74
2022-09-10T03:38:06.089Z,13.67
2022-09-10T03:41:12.129Z,13.70
2022-09-10T03:44:18.193Z,13.77
2022-09-10T03:47:24.257Z,13.83
2022-09-10T03:50:31.198Z,13.86
2022-09-10T03:53:39.627Z,13.87
2022-09-10T03:56:46.958Z,13.83
2022-09-10T03:59:52.834Z,13.88
2022-09-10T04:02:58.444Z,13.87
2022-09-10T04:06:04.121Z,13.81
2022-09-10T04:09:12.425Z,13.80
2022-09-10T04:12:18.034Z,13.77
2022-09-10T04:15:24.613Z,13.77
2022-09-10T04:18:34.670Z,13.82
2022-09-10T04:21:41.670Z,13.83
2022-09-10T04:24:50.162Z,13.86
2022-09-10T04:28:00.474Z,13.79
2022-09-10T04:31:09.586Z,13.70
2022-09-10T04:34:16.091Z,13.66
2022-09-10T04:37:22.189Z,13.64
2022-09-10T04:40:30.378Z,13.64
2022-09-10T04:43:36.849Z,13.56
2022-09-10T04:46:45.781Z,13.45
2022-09-10T04:49:51.399Z,13.43
2022-09-10T04:52:58.050Z,13.44
2022-09-10T04:56:07.762Z,13.36
2022-09-10T04:59:21.994Z,13.29
2022-09-10T05:02:28.561Z,13.38
2022-09-10T05:05:39.481Z,13.46
2022-09-10T05:08:45.542Z,13.41
2022-09-10T05:11:54.168Z,13.39
2022-09-10T05:15:00.188Z,13.33
2022-09-10T05:18:07.975Z,13.33
2022-09-10T05:21:16.264Z,13.37
2022-09-10T05:24:27.384Z,13.38
2022-09-10T05:27:36.572Z,13.48
2022-09-10T05:30:48.274Z,13.57
2022-09-10T05:33:59.650Z,13.64
2022-09-10T05:37:06.085Z,13.56
2022-09-10T05:40:19.504Z,13.24
2022-09-10T05:43:28.659Z,13.13
2022-09-10T05:46:36.141Z,13.01
2022-09-10T05:49:49.686Z,13.05
2022-09-10T05:52:56.710Z,12.84
2022-09-10T05:56:11.478Z,12.52
2022-09-10T05:59:20.722Z,12.25
2022-09-10T06:02:41.946Z,12.66
2022-09-10T06:06:01.162Z,12.56
2022-09-10T06:09:12.168Z,12.71
2022-09-10T06:12:52.242Z,12.73
2022-09-10T06:16:05.323Z,12.97
2022-09-10T06:19:12.720Z,13.03
2022-09-10T06:22:18.592Z,12.86
2022-09-10T06:25:31.410Z,12.67
2022-09-10T06:28:38.588Z,12.71
2022-09-10T06:31:58.068Z,13.12
2022-09-10T06:35:17.040Z,13.53
2022-09-10T06:38:28.414Z,13.67
2022-09-10T06:41:34.934Z,13.75
2022-09-10T06:44:47.238Z,13.70
2022-09-10T06:48:38.080Z,13.92
2022-09-10T06:51:40.288Z,14.03
2022-09-10T06:54:48.377Z,14.22
2022-09-10T06:58:04.263Z,14.47
2022-09-10T07:01:12.487Z,14.52
2022-09-10T07:04:22.122Z,14.56
2022-09-10T07:07:30.564Z,14.60
2022-09-10T07:10:37.590Z,14.82
2022-09-10T07:13:46.113Z,14.78
2022-09-10T07:16:53.658Z,14.72
2022-09-10T07:20:07.354Z,14.94
2022-09-10T07:23:32.650Z,14.79
2022-09-10T07:26:39.250Z,14.76
2022-09-10T07:29:44.967Z,14.76
2022-09-10T07:32:54.613Z,15.00
2022-09-10T07:36:08.556Z,15.04
2022-09-10T07:39:15.868Z,15.13
2022-09-10T07:42:22.260Z,15.09
2022-09-10T07:45:31.292Z,15.06
2022-09-10T07:48:40.603Z,15.37
2022-09-10T07:51:59.181Z,15.59
2022-09-10T07:55:10.534Z,15.72
2022-09-10T07:58:18.132Z,15.97
2022-09-10T08:01:25.748Z,16.04
2022-09-10T08:04:37.074Z,16.02
2022-09-10T08:07:49.510Z,16.56
2022-09-10T08:11:16.875Z,17.12
2022-09-10T08:14:24.343Z,17.18
2022-09-10T08:17:33.666Z,17.45
2022-09-10T08:20:40.009Z,16.94
2022-09-10T08:23:51.140Z,17.23
2022-09-10T08:27:00.512Z,17.64
2022-09-10T08:30:17.966Z,17.97
2022-09-10T08:33:25.170Z,18.18
2022-09-10T08:36:31.197Z,18.17
2022-09-10T08:39:50.873Z,18.26
2022-09-10T08:43:06.045Z,18.72
2022-09-10T08:46:30.319Z,18.94
2022-09-10T08:49:51.427Z,18.82
2022-09-10T08:53:13.115Z,18.87
2022-09-10T08:56:26.197Z,19.09
2022-09-10T08:59:46.906Z,19.43
2022-09-10T09:03:05.623Z,19.32
2022-09-10T09:06:30.515Z,18.88
2022-09-10T09:09:51.827Z,18.88
2022-09-10T09:13:44.633Z,19.05
2022-09-10T09:17:35.514Z,19.24
2022-09-10T09:20:50.002Z,19.56
2022-09-10T09:24:13.147Z,20.01
2022-09-10T09:27:39.323Z,20.53
2022-09-10T09:30:51.019Z,21.44
2022-09-10T09:38:35.297Z,22.51
2022-09-10T09:42:03.881Z,23.56
2022-09-10T09:45:34.895Z,23.43
2022-09-10T09:49:02.123Z,23.67
2022-09-10T09:52:34.230Z,23.09
2022-09-10T09:55:48.964Z,22.80
2022-09-10T09:58:59.274Z,22.40
2022-09-10T10:02:20.271Z,21.85
2022-09-10T10:05:29.098Z,21.36
2022-09-10T10:08:45.842Z,21.78
2022-09-10T10:11:58.388Z,21.94
2022-09-10T10:15:13.882Z,22.87
2022-09-10T10:18:34.852Z,22.73
2022-09-10T10:21:47.610Z,22.19
2022-09-10T10:24:55.109Z,21.84
2022-09-10T10:28:17.154Z,21.87
2022-09-10T10:31:51.620Z,21.63
2022-09-10T10:35:31.125Z,21.44
2022-09-10T10:38:42.066Z,21.70
2022-09-10T10:42:13.871Z,22.04
2022-09-10T10:45:48.503Z,22.72
2022-09-10T10:49:23.702Z,23.16
2022-09-10T10:52:50.235Z,24.02
2022-09-10T10:56:12.018Z,23.59
2022-09-10T10:59:46.395Z,23.46
2022-09-10T11:03:17.426Z,23.70
2022-09-10T11:06:28.376Z,23.12
2022-09-10T11:09:46.431Z,22.58
2022-09-10T11:13:06.620Z,21.90
2022-09-10T11:16:25.899Z,21.76
2022-09-10T11:19:53.350Z,22.10
2022-09-10T11:23:33.135Z,23.05
2022-09-10T11:26:48.715Z,23.85
2022-09-10T11:30:15.068Z,24.56
2022-09-10T11:33:30.137Z,24.24
2022-09-10T11:36:50.069Z,24.07
2022-09-10T11:40:12.703Z,23.72
2022-09-10T11:43:41.507Z,22.75
2022-09-10T11:47:13.004Z,22.65
2022-09-10T11:50:36.991Z,22.80
2022-09-10T11:53:52.757Z,22.64
2022-09-10T11:57:18.202Z,22.52
2022-09-10T12:00:44.037Z,22.38
2022-09-10T12:04:39.231Z,21.84
2022-09-10T12:08:01.668Z,21.44
2022-09-10T12:11:30.120Z,20.92
2022-09-10T12:14:36.269Z,20.90
2022-09-10T12:17:50.463Z,21.22
2022-09-10T12:21:05.269Z,21.49
2022-09-10T12:24:33.457Z,21.65
2022-09-10T12:27:54.101Z,21.90
2022-09-10T12:31:06.173Z,22.00
2022-09-10T12:34:22.007Z,22.70
2022-09-10T12:37:30.829Z,22.23
2022-09-10T12:40:52.167Z,21.94
2022-09-10T12:44:47.196Z,21.51
2022-09-10T12:47:53.894Z,21.67
2022-09-10T12:51:06.001Z,21.89
2022-09-10T12:54:57.435Z,21.71
2022-09-10T12:58:24.897Z,21.54
2022-09-10T13:01:46.704Z,21.63
2022-09-10T13:05:01.877Z,21.38
2022-09-10T13:08:20.688Z,21.39
2022-09-10T13:11:32.510Z,21.18
2022-09-10T13:14:50.856Z,21.20
2022-09-10T13:18:32.478Z,20.96
2022-09-10T13:21:59.407Z,20.92
2022-09-10T13:25:28.082Z,20.95
2022-09-10T13:29:07.147Z,20.87
2022-09-10T13:32:29.647Z,20.46
2022-09-10T13:36:20.569Z,20.25
2022-09-10T13:40:22.147Z,20.03
2022-09-10T13:43:52.950Z,20.03
2022-09-10T13:47:08.282Z,20.11
2022-09-10T13:50:21.865Z,20.03
2022-09-10T13:53:34.103Z,19.73
2022-09-10T13:56:45.647Z,19.71
2022-09-10T13:59:57.931Z,19.63
2022-09-10T14:03:08.160Z,19.45
2022-09-10T14:06:21.962Z,19.54
2022-09-10T14:09:32.921Z,19.60
2022-09-10T14:12:39.725Z,19.69
2022-09-10T14:15:52.692Z,19.71
2022-09-10T14:19:04.510Z,19.70
2022-09-10T14:22:16.416Z,19.70
2022-09-10T14:25:42.230Z,19.55
2022-09-10T14:29:04.995Z,19.64
2022-09-10T14:32:33.689Z,19.73
2022-09-10T14:35:46.397Z,19.66
2022-09-10T14:39:07.759Z,19.68
2022-09-10T14:42:30.617Z,19.71
2022-09-10T14:45:46.414Z,19.52
2022-09-10T14:49:12.552Z,19.39
2022-09-10T14:52:20.608Z,19.34
2022-09-10T14:55:30.818Z,19.33
2022-09-10T14:58:39.043Z,19.26
2022-09-10T15:01:48.477Z,19.01
2022-09-10T15:04:54.262Z,18.89
2022-09-10T15:07:59.893Z,18.80
2022-09-10T15:11:07.089Z,18.63
2022-09-10T15:14:21.355Z,18.55
2022-09-10T15:17:29.643Z,18.40
2022-09-10T15:20:36.364Z,18.36
2022-09-10T15:23:42.194Z,18.42
2022-09-10T15:26:49.185Z,18.39
2022-09-10T15:29:58.006Z,18.35
2022-09-10T15:33:08.648Z,18.23
2022-09-10T15:36:16.385Z,18.18
2022-09-10T15:39:22.055Z,18.17
2022-09-10T15:42:41.221Z,18.20
2022-09-10T15:45:50.393Z,18.17
2022-09-10T15:49:00.303Z,18.08
2022-09-10T15:52:13.310Z,18.04
2022-09-10T15:55:31.177Z,18.10
2022-09-10T15:58:38.295Z,18.05
2022-09-10T16:01:46.870Z,18.11
2022-09-10T16:04:53.340Z,17.98
2022-09-10T16:08:07.311Z,18.04
2022-09-10T16:11:27.603Z,18.04
2022-09-10T16:14:41.322Z,17.99
2022-09-10T16:17:53.543Z,17.92
2022-09-10T16:21:09.642Z,17.96
2022-09-10T16:24:17.750Z,17.81
2022-09-10T16:27:29.055Z,17.62
2022-09-10T16:30:35.386Z,17.49
2022-09-10T16:33:44.014Z,17.26
2022-09-10T16:36:51.672Z,17.23
2022-09-10T16:39:57.301Z,17.24
2022-09-10T16:43:09.383Z,17.22
2022-09-10T16:46:17.582Z,17.17
2022-09-10T16:49:26.008Z,17.15
2022-09-10T16:52:32.353Z,17.06
2022-09-10T16:55:38.084Z,16.99
2022-09-10T16:58:56.469Z,16.88
2022-09-10T17:02:02.140Z,16.75
2022-09-10T17:05:15.808Z,16.66
2022-09-10T17:08:25.849Z,16.48
2022-09-10T17:11:34.642Z,16.37
2022-09-10T17:14:40.269Z,16.23
2022-09-10T17:17:45.972Z,16.14
2022-09-10T17:20:59.746Z,16.02
2022-09-10T17:24:11.684Z,15.85
2022-09-10T17:27:17.350Z,15.86
2022-09-10T17:30:24.294Z,15.75
2022-09-10T17:33:32.207Z,15.70
2022-09-10T17:36:40.428Z,15.61
2022-09-10T17:39:46.098Z,15.56
2022-09-10T17:42:52.265Z,15.49
2022-09-10T17:45:58.636Z,15.34
2022-09-10T17:49:07.700Z,15.37
2022-09-10T17:52:16.679Z,14.91
2022-09-10T17:55:25.027Z,14.16
2022-09-10T17:58:39.423Z,13.84
2022-09-10T18:01:52.117Z,13.40
2022-09-10T18:04:59.299Z,13.26
2022-09-10T18:08:27.901Z,13.08
2022-09-10T18:11:36.779Z,13.04
2022-09-10T18:14:42.513Z,13.01
2022-09-10T18:18:01.464Z,12.99
2022-09-10T18:21:21.865Z,12.88
2022-09-10T18:24:30.318Z,12.86
2022-09-10T18:27:35.920Z,12.92
2022-09-10T18:30:41.815Z,12.92
2022-09-10T18:33:47.549Z,12.90
2022-09-10T18:36:57.861Z,12.90
2022-09-10T18:40:16.168Z,12.83
2022-09-10T18:43:22.064Z,12.78
2022-09-10T18:46:29.124Z,12.74
2022-09-10T18:49:35.814Z,12.68
2022-09-10T18:52:41.745Z,12.61
2022-09-10T18:55:59.979Z,12.58
2022-09-10T18:59:20.443Z,12.60
2022-09-10T19:02:32.059Z,12.59
2022-09-10T19:05:41.577Z,12.64
2022-09-10T19:08:56.353Z,12.65
2022-09-10T19:12:05.948Z,12.69
2022-09-10T19:15:13.575Z,12.71
2022-09-10T19:18:21.464Z,12.69
2022-09-10T19:21:32.804Z,12.72
2022-09-10T19:24:55.249Z,12.61
2022-09-10T19:28:03.879Z,12.55
2022-09-10T19:31:16.297Z,12.52
2022-09-10T19:34:27.037Z,12.43
2022-09-10T19:37:34.729Z,12.35
2022-09-10T19:40:40.509Z,12.42
2022-09-10T19:43:59.265Z,12.47
2022-09-10T19:47:13.754Z,12.44
2022-09-10T19:50:23.253Z,12.42
2022-09-10T19:53:36.331Z,12.39
2022-09-10T19:56:46.536Z,12.42
2022-09-10T19:59:59.417Z,12.42
2022-09-10T20:03:16.267Z,12.37
2022-09-10T20:06:25.864Z,12.32
2022-09-10T20:09:37.900Z,12.38
2022-09-10T20:12:45.869Z,12.45
2022-09-10T20:15:56.784Z,12.39
2022-09-10T20:19:06.494Z,12.38
2022-09-10T20:22:16.510Z,12.35
2022-09-10T20:25:26.734Z,12.38
2022-09-10T20:28:34.638Z,12.40
2022-09-10T20:31:44.654Z,12.39
2022-09-10T20:34:50.422Z,12.43
2022-09-10T20:37:56.419Z,12.42
2022-09-10T20:41:03.637Z,12.38
2022-09-10T20:44:19.272Z,12.43
2022-09-10T20:47:31.439Z,12.38
2022-09-10T20:50:37.419Z,12.39
2022-09-10T20:53:47.052Z,12.43
2022-09-10T20:56:53.128Z,12.41
2022-09-10T20:59:59.500Z,12.18
2022-09-10T21:03:09.895Z,12.10
2022-09-10T21:06:18.581Z,11.95
2022-09-10T21:09:24.200Z,11.97
2022-09-10T21:12:29.832Z,11.89
2022-09-10T21:15:35.428Z,11.94
2022-09-10T21:18:54.778Z,11.84
2022-09-10T21:22:20.608Z,11.75
2022-09-10T21:25:34.210Z,11.65
2022-09-10T21:28:46.990Z,11.74
2022-09-10T21:32:00.035Z,11.85
2022-09-10T21:35:28.254Z,11.89
2022-09-10T21:38:36.409Z,11.89
2022-09-10T21:41:46.274Z,11.76
2022-09-10T21:44:52.798Z,11.67
2022-09-10T21:47:58.848Z,11.72
2022-09-10T21:51:15.711Z,11.78
2022-09-10T21:54:24.562Z,11.81
2022-09-10T21:57:32.620Z,11.81
2022-09-10T22:00:38.678Z,11.81
2022-09-10T22:03:53.192Z,11.85
2022-09-10T22:07:04.984Z,11.83
2022-09-10T22:10:12.168Z,11.82
2022-09-10T22:13:18.076Z,11.87
2022-09-10T22:16:24.659Z,11.91
2022-09-10T22:19:30.305Z,11.91
2022-09-10T22:22:39.681Z,11.96
2022-09-10T22:25:45.294Z,12.01
2022-09-10T22:28:54.468Z,12.06
2022-09-10T22:32:00.110Z,12.12
2022-09-10T22:35:18.242Z,12.18
2022-09-10T22:38:26.615Z,12.09
2022-09-10T22:41:35.854Z,12.08
2022-09-10T22:44:47.183Z,12.14
2022-09-10T22:47:53.146Z,12.20
2022-09-10T22:50:59.456Z,12.21
2022-09-10T22:54:10.886Z,12.18
2022-09-10T22:57:19.234Z,12.17
2022-09-10T23:00:28.897Z,12.23
2022-09-10T23:03:35.336Z,12.30
2022-09-10T23:06:49.580Z,12.35
2022-09-10T23:10:14.571Z,12.42
2022-09-10T23:13:21.201Z,12.41
2022-09-10T23:16:33.172Z,12.47
2022-09-10T23:19:39.913Z,12.49
2022-09-10T23:22:45.672Z,12.46
2022-09-10T23:25:56.275Z,12.42
2022-09-10T23:29:03.999Z,12.36
2022-09-10T23:32:13.030Z,12.32
2022-09-10T23:35:18.964Z,12.38
2022-09-10T23:38:24.960Z,12.36
2022-09-10T23:41:33.412Z,12.30
2022-09-10T23:44:39.248Z,12.30
2022-09-10T23:47:46.226Z,12.35
2022-09-10T23:50:52.987Z,12.38
2022-09-10T23:54:00.756Z,12.40
2022-09-10T23:57:09.078Z,12.44
